< < Back
Terminal Aerodrome Forecast


Current Version              Previous Versions:   1  2  3  4  5  6  7  8  9  

Terminal Aerodrome Forecast

035
FTUS44 KHUN 202330
TAFHSV
TAF
KHSV 202330Z 2100/2124 12004KT P6SM SCT250
      TEMPO 2110/2112 5SM BR
     FM211500 27010KT P6SM SCT120 BKN250=



Latest METAR

158
SAUS80 KWBC 210400 RRC
MTRHSV
METAR KHSV 210353Z 00000KT 10SM CLR 22/17 A3006 RMK AO2 SLP171 T02170172
$


USA.gov is the U.S. government's official web portal to all federal, state and local government web resources and services.